Time;durP1;ratioP1;P1;durP2;ratioP2;P2;SDS_P1;SDS_P2;PMS_P1;PMS_P2;Temp;Humidity;BMP_temperature;BMP_pressure;BME280_temperature;BME280_humidity;BME280_pressure;Samples;Min_cycle;Max_cycle;Signal;HPM_P1;HPM_P2
2023/08/10 00:00:32;;;;;;;0.50;0.50;;;;;;;20.91;84.80;99433.88;5052443;28;20199;-65
2023/08/10 00:02:58;;;;;;;0.60;0.60;;;;;;;20.99;84.00;99435.94;5052620;28;20207;-65
2023/08/10 00:05:25;;;;;;;0.40;0.40;;;;;;;21.02;84.15;99429.66;5051552;28;20964;-66
2023/08/10 00:07:53;;;;;;;0.50;0.50;;;;;;;20.97;84.12;99437.00;5052616;28;20664;-65
2023/08/10 00:10:20;;;;;;;0.50;0.50;;;;;;;20.95;84.09;99443.13;5052070;28;20219;-66
2023/08/10 00:12:47;;;;;;;0.40;0.40;;;;;;;20.99;83.71;99435.09;5052520;28;20255;-65
2023/08/10 00:15:14;;;;;;;0.40;0.40;;;;;;;20.98;83.69;99431.66;5052694;28;20192;-66
2023/08/10 00:17:41;;;;;;;0.70;0.70;;;;;;;20.99;84.18;99440.31;5052671;28;20669;-65
2023/08/10 00:20:10;;;;;;;0.47;0.47;;;;;;;21.00;84.16;99444.59;5052437;28;20653;-65
2023/08/10 00:22:37;;;;;;;0.60;0.60;;;;;;;21.05;83.65;99452.91;5052651;28;20226;-66
2023/08/10 00:25:07;;;;;;;0.33;0.33;;;;;;;21.06;83.63;99459.78;5052026;28;20684;-66
2023/08/10 00:27:35;;;;;;;0.57;0.57;;;;;;;21.07;84.13;99458.81;5051479;28;20207;-65
2023/08/10 00:30:01;;;;;;;0.47;0.47;;;;;;;21.11;83.96;99460.31;5052350;28;20733;-66
2023/08/10 00:32:28;;;;;;;0.60;0.60;;;;;;;21.12;84.15;99468.03;5052659;28;20218;-65
2023/08/10 00:34:55;;;;;;;0.80;0.60;;;;;;;21.12;83.97;99472.41;5052221;28;20554;-65
2023/08/10 00:37:22;;;;;;;0.53;0.53;;;;;;;21.11;84.54;99470.72;5052077;28;20691;-65
2023/08/10 00:39:48;;;;;;;0.50;0.50;;;;;;;20.99;84.99;99463.75;5052086;28;20254;-64
2023/08/10 00:42:16;;;;;;;0.40;0.40;;;;;;;21.00;85.23;99474.09;5052281;28;20204;-65
2023/08/10 00:44:43;;;;;;;0.50;0.50;;;;;;;20.80;86.17;99472.06;5052470;28;20215;-66
2023/08/10 00:47:10;;;;;;;0.50;0.50;;;;;;;20.72;87.12;99477.81;5051377;28;20211;-66
2023/08/10 00:49:37;;;;;;;0.60;0.60;;;;;;;20.62;86.72;99455.94;5051511;28;20206;-65
2023/08/10 00:52:04;;;;;;;0.70;0.70;;;;;;;20.71;86.47;99447.47;5051662;28;20237;-66
2023/08/10 00:54:32;;;;;;;0.60;0.60;;;;;;;20.77;87.12;99452.28;5051775;28;20194;-66
2023/08/10 00:56:59;;;;;;;0.60;0.60;;;;;;;20.82;86.52;99434.53;5051887;28;20705;-65
2023/08/10 00:59:30;;;;;;;0.50;0.50;;;;;;;20.86;86.25;99422.13;5052096;28;20203;-65
2023/08/10 01:01:57;;;;;;;0.60;0.60;;;;;;;20.86;86.22;99409.09;5051723;28;20203;-66
2023/08/10 01:04:24;;;;;;;0.57;0.57;;;;;;;20.90;86.39;99421.78;5051815;28;20220;-66
2023/08/10 01:07:00;;;;;;;0.50;0.50;;;;;;;20.92;86.24;99412.09;5051496;28;20204;-66
2023/08/10 01:09:35;;;;;;;0.50;0.50;;;;;;;20.97;85.56;99410.94;5051026;28;20198;-66
2023/08/10 01:12:13;;;;;;;0.60;0.60;;;;;;;21.01;84.98;99427.97;5051720;28;20254;-66
2023/08/10 01:14:46;;;;;;;0.60;0.60;;;;;;;21.05;84.71;99430.28;5049079;28;20193;-66
2023/08/10 01:17:19;;;;;;;0.57;0.57;;;;;;;21.12;84.28;99433.31;5051048;28;20203;-66
2023/08/10 01:19:49;;;;;;;0.77;0.57;;;;;;;21.15;84.18;99428.69;5046737;28;20639;-65
2023/08/10 01:22:29;;;;;;;1.50;0.63;;;;;;;21.19;84.16;99422.31;5051208;28;20719;-66
2023/08/10 01:25:04;;;;;;;0.50;0.50;;;;;;;21.26;83.82;99430.53;5050956;28;20231;-66
2023/08/10 01:27:32;;;;;;;0.47;0.47;;;;;;;21.23;83.29;99423.72;5050416;28;20242;-65
2023/08/10 01:30:00;;;;;;;0.50;0.50;;;;;;;21.31;83.45;99428.41;5051022;28;20204;-66
2023/08/10 01:32:27;;;;;;;0.40;0.40;;;;;;;21.19;83.04;99413.66;5050684;28;20570;-65
2023/08/10 01:34:54;;;;;;;0.53;0.53;;;;;;;21.28;82.75;99437.28;5050675;28;20258;-66
2023/08/10 01:37:21;;;;;;;0.30;0.30;;;;;;;21.29;82.91;99431.09;5050881;28;20208;-66
2023/08/10 01:39:48;;;;;;;0.53;0.53;;;;;;;21.25;83.68;99426.25;5050991;28;20205;-66
2023/08/10 01:42:16;;;;;;;0.50;0.50;;;;;;;21.26;83.88;99427.91;5050891;28;20211;-66
2023/08/10 01:44:43;;;;;;;0.53;0.53;;;;;;;21.24;83.68;99417.59;5050971;28;20600;-66
2023/08/10 01:47:18;;;;;;;0.40;0.40;;;;;;;21.23;83.44;99415.06;5050888;28;20197;-66
2023/08/10 01:49:47;;;;;;;0.67;0.67;;;;;;;21.21;83.46;99424.78;5050722;28;20608;-65
2023/08/10 01:52:15;;;;;;;0.60;0.60;;;;;;;21.20;83.53;99430.94;5050659;28;20204;-66
2023/08/10 01:54:43;;;;;;;0.60;0.60;;;;;;;21.18;83.68;99444.13;5050887;28;20206;-66
2023/08/10 01:57:10;;;;;;;0.60;0.60;;;;;;;21.22;84.02;99452.53;5050465;28;20200;-66
2023/08/10 01:59:38;;;;;;;0.50;0.50;;;;;;;21.22;84.21;99448.16;5050079;28;20200;-65
2023/08/10 02:02:05;;;;;;;0.67;0.67;;;;;;;21.24;84.29;99450.66;5050285;28;20196;-66
2023/08/10 02:04:32;;;;;;;0.50;0.50;;;;;;;21.24;84.22;99445.44;5049448;28;20215;-66
2023/08/10 02:06:59;;;;;;;0.50;0.50;;;;;;;21.23;84.69;99448.97;5050282;28;20199;-66
2023/08/10 02:09:26;;;;;;;0.60;0.60;;;;;;;21.15;84.11;99436.50;5050227;28;20215;-66
2023/08/10 02:11:52;;;;;;;0.70;0.70;;;;;;;21.12;84.49;99415.88;5050689;28;20208;-66
2023/08/10 02:14:19;;;;;;;0.70;0.70;;;;;;;21.07;84.31;99407.53;5050496;28;20725;-66
2023/08/10 02:16:47;;;;;;;1.30;0.70;;;;;;;21.24;84.45;99435.00;5050224;28;20196;-65
2023/08/10 02:19:14;;;;;;;0.50;0.50;;;;;;;21.23;84.26;99433.31;5050206;28;20299;-66
2023/08/10 02:21:41;;;;;;;0.53;0.53;;;;;;;21.23;84.18;99433.31;5050447;28;20234;-65
2023/08/10 02:24:08;;;;;;;0.50;0.50;;;;;;;21.24;84.67;99437.59;5049673;28;20200;-66
2023/08/10 02:26:34;;;;;;;0.57;0.57;;;;;;;21.21;84.40;99432.63;5050327;28;20207;-66
2023/08/10 02:29:01;;;;;;;0.70;0.70;;;;;;;21.21;84.31;99445.66;5050225;28;20645;-66
2023/08/10 02:31:28;;;;;;;0.50;0.50;;;;;;;21.21;84.38;99441.28;5049654;28;20215;-66
2023/08/10 02:33:56;;;;;;;0.60;0.60;;;;;;;21.19;84.81;99435.34;5049523;28;20213;-65
2023/08/10 02:36:23;;;;;;;0.70;0.70;;;;;;;21.18;84.91;99440.66;5049976;28;20203;-66
2023/08/10 02:38:49;;;;;;;0.50;0.50;;;;;;;21.13;85.48;99437.56;5050147;28;20192;-66
2023/08/10 02:41:16;;;;;;;0.60;0.60;;;;;;;21.14;85.10;99447.03;5050283;28;20667;-66
2023/08/10 02:43:43;;;;;;;0.60;0.60;;;;;;;21.13;85.55;99438.38;5050068;28;20586;-66
2023/08/10 02:46:10;;;;;;;0.57;0.57;;;;;;;21.13;85.91;99427.94;5048576;28;20218;-65
2023/08/10 02:48:37;;;;;;;0.80;0.80;;;;;;;21.11;85.45;99426.41;5049894;28;20203;-66
2023/08/10 02:51:05;;;;;;;0.50;0.50;;;;;;;21.07;84.92;99432.75;5049816;28;20608;-65
2023/08/10 02:53:32;;;;;;;0.67;0.67;;;;;;;21.04;85.08;99428.59;5048271;28;20247;-66
2023/08/10 02:55:59;;;;;;;0.50;0.50;;;;;;;21.01;86.05;99428.81;5049535;28;20204;-65
2023/08/10 02:58:25;;;;;;;0.60;0.60;;;;;;;21.01;86.24;99427.97;5049915;28;20207;-66
2023/08/10 03:00:52;;;;;;;0.50;0.50;;;;;;;21.00;86.78;99437.59;5049322;28;20208;-66
2023/08/10 03:03:19;;;;;;;0.40;0.40;;;;;;;21.00;86.79;99444.59;5049523;28;20258;-65
2023/08/10 03:05:45;;;;;;;0.60;0.60;;;;;;;21.01;86.45;99448.84;5049449;28;20215;-66
2023/08/10 03:08:14;;;;;;;0.70;0.70;;;;;;;21.04;86.88;99453.81;5049613;28;20254;-65
2023/08/10 03:10:40;;;;;;;0.50;0.50;;;;;;;21.05;86.70;99452.91;5050368;28;20200;-66
2023/08/10 03:13:07;;;;;;;0.50;0.50;;;;;;;21.06;87.60;99451.97;5053315;28;20294;-66
2023/08/10 03:15:34;;;;;;;0.60;0.60;;;;;;;20.95;87.31;99434.47;5052895;28;20196;-66
2023/08/10 03:18:01;;;;;;;0.50;0.50;;;;;;;21.05;87.23;99451.13;5053030;28;20207;-66
2023/08/10 03:20:28;;;;;;;0.50;0.50;;;;;;;21.04;87.79;99448.63;5052971;28;20199;-66
2023/08/10 03:22:54;;;;;;;0.73;0.73;;;;;;;21.05;87.48;99447.69;5053620;28;20804;-65
2023/08/10 03:25:23;;;;;;;0.50;0.50;;;;;;;21.06;87.30;99451.97;5053515;28;20258;-66
2023/08/10 03:27:49;;;;;;;0.50;0.50;;;;;;;21.04;87.37;99448.63;5053972;28;20206;-66
2023/08/10 03:30:16;;;;;;;0.40;0.40;;;;;;;21.08;87.23;99450.06;5052523;28;20204;-66
2023/08/10 03:32:43;;;;;;;0.40;0.40;;;;;;;21.10;87.43;99448.22;5055737;28;20195;-66
2023/08/10 03:35:10;;;;;;;0.63;0.63;;;;;;;21.10;88.09;99448.22;5053798;28;20204;-65
2023/08/10 03:37:37;;;;;;;0.60;0.60;;;;;;;21.11;88.64;99437.66;5053525;28;20224;-66
2023/08/10 03:40:06;;;;;;;0.60;0.60;;;;;;;21.06;88.30;99441.53;5053416;28;20230;-66
2023/08/10 03:42:34;;;;;;;0.67;0.67;;;;;;;21.06;88.02;99431.94;5053372;28;20215;-67
2023/08/10 03:45:01;;;;;;;0.83;0.83;;;;;;;20.98;88.33;99413.41;5053293;28;20220;-66
2023/08/10 03:47:28;;;;;;;0.50;0.50;;;;;;;21.07;88.59;99432.75;5053371;28;20225;-67
2023/08/10 03:49:55;;;;;;;0.50;0.50;;;;;;;21.06;89.30;99431.09;5053474;28;20200;-67
2023/08/10 03:52:23;;;;;;;0.40;0.40;;;;;;;21.05;89.06;99426.81;5052456;28;20204;-67
2023/08/10 03:54:50;;;;;;;0.60;0.60;;;;;;;21.03;89.24;99426.13;5053648;28;20247;-67
2023/08/10 03:57:16;;;;;;;0.87;0.63;;;;;;;21.02;89.33;99424.44;5052791;28;20291;-67
2023/08/10 03:59:45;;;;;;;0.67;0.67;;;;;;;21.02;89.39;99419.22;5053245;28;20235;-67
2023/08/10 04:02:11;;;;;;;0.50;0.50;;;;;;;21.02;89.50;99417.47;5052335;28;20203;-67
2023/08/10 04:04:38;;;;;;;0.63;0.63;;;;;;;21.00;89.46;99414.16;5052185;28;20193;-67
2023/08/10 04:07:07;;;;;;;0.70;0.70;;;;;;;20.97;89.67;99422.16;5052450;28;20199;-67
2023/08/10 04:09:34;;;;;;;0.60;0.60;;;;;;;20.94;90.66;99425.00;5052994;28;20199;-67
2023/08/10 04:12:01;;;;;;;0.53;0.53;;;;;;;20.90;90.63;99426.97;5052870;28;20206;-67
2023/08/10 04:14:27;;;;;;;0.50;0.50;;;;;;;20.94;91.86;99438.84;5051736;28;20693;-67
2023/08/10 04:16:57;;;;;;;0.60;0.60;;;;;;;20.93;91.61;99439.81;5052932;28;20286;-67
2023/08/10 04:19:23;;;;;;;0.80;0.80;;;;;;;20.86;91.76;99422.94;5052153;28;20203;-67
2023/08/10 04:21:50;;;;;;;0.47;0.47;;;;;;;20.98;91.12;99429.03;5052265;28;20258;-68
2023/08/10 04:24:17;;;;;;;0.67;0.67;;;;;;;21.02;90.79;99430.50;5052368;28;20642;-67
2023/08/10 04:26:45;;;;;;;0.40;0.40;;;;;;;21.05;90.76;99430.28;5053122;28;20231;-67
2023/08/10 04:29:12;;;;;;;0.60;0.60;;;;;;;21.04;90.79;99425.16;5052692;28;20203;-67
2023/08/10 04:31:38;;;;;;;0.70;0.70;;;;;;;21.15;89.88;99440.91;5052241;28;20702;-67
2023/08/10 04:34:07;;;;;;;0.87;0.87;;;;;;;21.19;90.50;99432.75;5052177;28;20683;-67
2023/08/10 04:36:34;;;;;;;0.80;0.80;;;;;;;21.28;91.21;99431.22;5052341;28;20675;-66
2023/08/10 04:39:01;;;;;;;0.60;0.60;;;;;;;21.33;90.45;99436.94;5048564;28;20579;-67
2023/08/10 04:41:28;;;;;;;0.70;0.70;;;;;;;21.23;90.51;99428.13;5048092;28;20266;-68
2023/08/10 04:43:55;;;;;;;0.73;0.73;;;;;;;21.39;91.16;99444.28;5050257;28;20199;-67
2023/08/10 04:46:21;;;;;;;0.60;0.60;;;;;;;21.44;91.14;99447.41;5046421;28;20232;-67
2023/08/10 04:48:48;;;;;;;0.87;0.77;;;;;;;21.50;91.71;99457.38;5049836;28;20581;-68
2023/08/10 04:51:16;;;;;;;0.53;0.53;;;;;;;21.56;91.66;99459.53;5049039;28;20255;-67
2023/08/10 04:53:43;;;;;;;0.50;0.50;;;;;;;21.75;92.12;99466.81;5049433;28;20958;-68
2023/08/10 04:56:10;;;;;;;0.60;0.60;;;;;;;21.92;90.28;99477.72;5048707;28;20212;-67
2023/08/10 04:58:36;;;;;;;0.60;0.60;;;;;;;22.11;88.13;99476.28;5049691;28;20205;-68
2023/08/10 05:01:03;;;;;;;1.13;0.60;;;;;;;22.31;89.01;99475.59;5049961;28;20209;-67
2023/08/10 05:03:30;;;;;;;0.70;0.70;;;;;;;22.47;87.22;99468.25;5048132;28;20258;-67
2023/08/10 05:05:57;;;;;;;0.67;0.67;;;;;;;22.56;86.00;99474.53;5050351;28;20658;-68
2023/08/10 05:08:26;;;;;;;0.77;0.77;;;;;;;22.58;85.93;99467.41;5048259;28;20213;-68
2023/08/10 05:10:52;;;;;;;0.70;0.70;;;;;;;22.69;87.77;99478.72;5049057;28;20205;-67
2023/08/10 05:13:19;;;;;;;0.47;0.47;;;;;;;22.86;87.62;99483.44;5047975;28;20209;-68
2023/08/10 05:15:46;;;;;;;0.63;0.63;;;;;;;23.05;86.98;99476.75;5050700;28;20197;-69
2023/08/10 05:18:13;;;;;;;0.80;0.80;;;;;;;23.27;82.33;99480.13;5050567;28;21495;-68
2023/08/10 05:20:39;;;;;;;0.60;0.60;;;;;;;23.52;81.14;99481.63;5050721;28;20228;-68
2023/08/10 05:23:06;;;;;;;0.60;0.60;;;;;;;23.76;78.12;99474.34;5050252;28;20236;-68
2023/08/10 05:25:34;;;;;;;0.50;0.50;;;;;;;23.96;74.96;99470.91;5050781;28;20565;-67
2023/08/10 05:28:01;;;;;;;0.60;0.60;;;;;;;24.04;71.50;99478.91;5048463;28;20205;-67
2023/08/10 05:30:28;;;;;;;0.40;0.40;;;;;;;24.19;72.97;99468.16;5050081;28;20735;-68
2023/08/10 05:32:54;;;;;;;0.40;0.40;;;;;;;24.32;71.47;99476.63;5050315;28;20204;-69
2023/08/10 05:35:22;;;;;;;0.53;0.53;;;;;;;24.52;71.51;99478.38;5049185;28;20205;-69
2023/08/10 05:37:49;;;;;;;0.50;0.50;;;;;;;24.53;69.39;99467.75;5050254;28;20219;-69
2023/08/10 05:40:15;;;;;;;0.50;0.50;;;;;;;24.56;68.93;99471.88;5049993;28;20291;-69
2023/08/10 05:42:44;;;;;;;0.50;0.50;;;;;;;24.61;68.48;99467.09;5050434;28;20588;-69
2023/08/10 05:45:15;;;;;;;0.60;0.60;;;;;;;24.66;66.81;99464.03;5048230;28;20208;-69
2023/08/10 05:47:45;;;;;;;0.77;0.40;;;;;;;24.58;66.98;99456.88;5049260;28;20201;-69
2023/08/10 05:50:12;;;;;;;0.50;0.50;;;;;;;24.67;66.07;99476.19;5049683;28;20295;-68
2023/08/10 05:52:39;;;;;;;0.63;0.63;;;;;;;24.68;67.44;99476.09;5049482;28;20565;-69
2023/08/10 05:55:06;;;;;;;0.50;0.50;;;;;;;24.65;65.73;99483.38;5048975;28;20574;-68
2023/08/10 05:57:33;;;;;;;0.70;0.70;;;;;;;24.37;65.85;99495.38;5050262;28;20223;-68
2023/08/10 06:00:02;;;;;;;0.50;0.50;;;;;;;24.16;65.84;99498.06;5049112;28;20216;-68
2023/08/10 06:02:29;;;;;;;0.67;0.67;;;;;;;24.15;68.58;99492.94;5049376;28;20196;-68
2023/08/10 06:04:55;;;;;;;0.50;0.50;;;;;;;24.21;69.00;99495.03;5048882;28;20201;-69
2023/08/10 06:07:22;;;;;;;0.60;0.60;;;;;;;24.35;68.10;99492.09;5046923;28;20692;-68
2023/08/10 06:09:49;;;;;;;1.37;0.47;;;;;;;24.36;67.23;99496.38;5048551;28;20228;-66
2023/08/10 06:12:17;;;;;;;0.50;0.50;;;;;;;24.37;68.77;99500.63;5048779;28;20247;-67
2023/08/10 06:14:45;;;;;;;3.63;0.60;;;;;;;24.41;66.73;99502.03;5049820;28;20208;-69
2023/08/10 06:17:13;;;;;;;0.50;0.50;;;;;;;24.51;70.26;99498.50;5047945;28;20232;-69
2023/08/10 06:19:40;;;;;;;0.60;0.60;;;;;;;24.55;67.79;99504.31;5047905;28;20215;-68
2023/08/10 06:22:07;;;;;;;0.50;0.50;;;;;;;24.45;68.22;99508.69;5049730;28;20327;-70
2023/08/10 06:24:34;;;;;;;0.50;0.50;;;;;;;24.33;66.84;99514.97;5049050;28;20208;-70
2023/08/10 06:27:01;;;;;;;0.57;0.57;;;;;;;24.41;70.28;99525.63;5049110;28;20217;-68
2023/08/10 06:29:28;;;;;;;1.00;0.77;;;;;;;24.63;68.06;99522.81;5047909;28;20224;-67
2023/08/10 06:31:55;;;;;;;0.40;0.40;;;;;;;24.69;66.53;99514.44;5049061;28;20209;-69
2023/08/10 06:34:24;;;;;;;0.60;0.60;;;;;;;24.65;66.54;99513.06;5048461;28;20314;-69
2023/08/10 06:36:52;;;;;;;0.60;0.60;;;;;;;24.67;68.26;99505.88;5047615;28;20201;-69
2023/08/10 06:39:19;;;;;;;0.70;0.70;;;;;;;24.82;66.64;99515.06;5046515;28;20300;-68
2023/08/10 06:41:45;;;;;;;0.60;0.60;;;;;;;25.07;65.13;99501.44;5046499;28;20530;-67
2023/08/10 06:44:12;;;;;;;0.93;0.60;;;;;;;25.05;66.48;99508.63;5049327;28;20212;-69
2023/08/10 06:46:39;;;;;;;0.60;0.60;;;;;;;25.01;65.67;99504.63;5049344;28;20608;-67
2023/08/10 06:49:06;;;;;;;0.50;0.50;;;;;;;24.99;66.04;99514.41;5049186;28;20205;-67
2023/08/10 06:51:34;;;;;;;0.80;0.80;;;;;;;25.26;68.08;99519.03;5048715;28;20240;-65
2023/08/10 06:54:01;;;;;;;0.50;0.50;;;;;;;25.62;64.24;99525.44;5049766;28;20204;-69
2023/08/10 06:56:29;;;;;;;0.60;0.60;;;;;;;25.79;61.79;99531.78;5049749;28;20204;-68
2023/08/10 06:58:56;;;;;;;0.50;0.50;;;;;;;25.77;63.00;99528.47;5049252;28;20201;-68
2023/08/10 07:01:23;;;;;;;0.70;0.70;;;;;;;25.81;64.74;99522.81;5049917;28;20228;-68
2023/08/10 07:03:49;;;;;;;0.70;0.70;;;;;;;25.77;65.15;99526.69;5049085;28;20205;-68
2023/08/10 07:06:17;;;;;;;0.60;0.60;;;;;;;25.67;64.16;99519.75;5049818;28;20216;-68
2023/08/10 07:08:46;;;;;;;0.33;0.33;;;;;;;25.44;64.02;99521.78;5047978;28;20204;-67
2023/08/10 07:11:13;;;;;;;0.60;0.60;;;;;;;25.47;66.82;99524.97;5050019;28;20288;-68
2023/08/10 07:13:41;;;;;;;0.50;0.50;;;;;;;25.61;65.06;99528.19;5049636;28;20200;-68
2023/08/10 07:16:07;;;;;;;0.43;0.43;;;;;;;25.60;66.14;99524.75;5049890;28;20197;-68
2023/08/10 07:18:34;;;;;;;0.50;0.50;;;;;;;25.65;67.62;99534.84;5049154;28;20197;-68
2023/08/10 07:21:02;;;;;;;0.43;0.43;;;;;;;25.79;67.64;99532.59;5048999;28;20292;-68
2023/08/10 07:23:30;;;;;;;1.17;0.60;;;;;;;25.90;68.25;99532.47;5049611;28;20228;-68
2023/08/10 07:25:58;;;;;;;0.30;0.30;;;;;;;25.99;69.30;99536.88;5049748;28;20227;-67
2023/08/10 07:28:26;;;;;;;0.40;0.40;;;;;;;25.90;66.66;99531.63;5049812;28;20661;-68
2023/08/10 07:30:53;;;;;;;0.40;0.40;;;;;;;25.67;67.13;99546.84;5049860;28;20255;-67
2023/08/10 07:33:21;;;;;;;0.33;0.33;;;;;;;25.08;67.55;99513.59;5049733;28;20294;-66
2023/08/10 07:35:47;;;;;;;0.43;0.43;;;;;;;24.71;66.92;99540.53;5049906;28;20197;-66
2023/08/10 07:38:16;;;;;;;0.40;0.40;;;;;;;24.58;68.24;99550.41;5049607;28;20197;-67
2023/08/10 07:40:42;;;;;;;0.40;0.40;;;;;;;24.49;70.18;99544.16;5047846;28;20573;-67
2023/08/10 07:43:11;;;;;;;0.50;0.50;;;;;;;24.63;70.29;99553.44;5049933;28;20207;-67
2023/08/10 07:45:37;;;;;;;0.50;0.50;;;;;;;24.72;68.65;99547.44;5049433;28;20270;-67
2023/08/10 07:48:05;;;;;;;0.30;0.30;;;;;;;24.52;68.74;99552.56;5048618;28;20217;-67
2023/08/10 07:50:47;;;;;;;2.43;0.60;;;;;;;24.52;70.00;99562.25;5043628;28;20201;-67
2023/08/10 07:53:14;;;;;;;0.30;0.30;;;;;;;24.46;69.71;99555.72;5049879;28;20239;-66
2023/08/10 07:55:41;;;;;;;0.47;0.47;;;;;;;24.45;70.27;99558.47;5050434;28;20201;-67
2023/08/10 07:58:08;;;;;;;0.40;0.40;;;;;;;24.33;70.91;99564.78;5049687;28;20204;-66
2023/08/10 08:00:38;;;;;;;0.43;0.43;;;;;;;24.23;71.30;99561.25;5051747;28;20200;-67
2023/08/10 08:03:05;;;;;;;0.50;0.50;;;;;;;24.13;71.61;99571.66;5052099;28;20200;-67
2023/08/10 08:05:37;;;;;;;0.50;0.50;;;;;;;23.77;73.31;99570.25;5052478;28;20204;-67
2023/08/10 08:08:04;;;;;;;0.40;0.40;;;;;;;23.68;76.30;99573.63;5052216;28;20730;-66
2023/08/10 08:10:31;;;;;;;0.30;0.30;;;;;;;23.61;75.47;99579.47;5052956;28;20208;-67
2023/08/10 08:12:59;;;;;;;0.50;0.50;;;;;;;23.52;77.89;99578.44;5053195;28;20642;-67
2023/08/10 08:15:25;;;;;;;0.60;0.60;;;;;;;23.24;77.78;99569.31;5053365;28;20212;-66
2023/08/10 08:18:29;;;;;;;0.30;0.30;;;;;;;23.13;79.77;99594.66;5047832;28;20579;-67
2023/08/10 08:20:57;;;;;;;0.63;0.50;;;;;;;22.99;80.85;99593.13;5053806;28;20204;-67
2023/08/10 08:23:24;;;;;;;0.30;0.30;;;;;;;22.94;80.82;99596.09;5053006;28;20228;-67
2023/08/10 08:25:51;;;;;;;1.07;0.60;;;;;;;22.76;81.98;99567.94;5053037;28;20208;-66
2023/08/10 08:28:18;;;;;;;0.60;0.60;;;;;;;22.76;84.03;99596.69;5053235;28;20262;-67
2023/08/10 08:30:44;;;;;;;0.40;0.40;;;;;;;22.51;85.78;99595.09;5053526;28;20687;-67
2023/08/10 08:33:12;;;;;;;0.60;0.60;;;;;;;22.36;86.94;99604.06;5053774;28;20656;-66
2023/08/10 08:35:39;;;;;;;0.50;0.50;;;;;;;22.30;86.39;99592.31;5053312;28;20208;-66
2023/08/10 08:38:07;;;;;;;0.40;0.40;;;;;;;22.35;87.72;99592.81;5053338;28;20200;-66
2023/08/10 08:40:35;;;;;;;0.60;0.60;;;;;;;22.44;87.57;99596.50;5050942;28;20455;-67
2023/08/10 08:43:04;;;;;;;0.53;0.53;;;;;;;22.63;88.43;99606.38;5050852;28;20211;-68
2023/08/10 08:45:31;;;;;;;0.77;0.77;;;;;;;22.69;87.53;99606.78;5050244;28;20267;-68
2023/08/10 08:47:58;;;;;;;0.57;0.53;;;;;;;22.77;89.58;99598.34;5050712;28;20609;-68
2023/08/10 08:50:27;;;;;;;0.53;0.53;;;;;;;22.62;89.98;99595.09;5051786;28;20212;-68
2023/08/10 08:52:55;;;;;;;0.70;0.70;;;;;;;22.68;90.42;99599.88;5047546;28;20193;-67
2023/08/10 08:55:23;;;;;;;0.70;0.70;;;;;;;22.67;92.02;99582.56;5052421;28;20209;-70
2023/08/10 08:57:50;;;;;;;0.50;0.50;;;;;;;22.33;91.35;99578.19;5051843;28;20242;-68
2023/08/10 09:00:17;;;;;;;0.40;0.40;;;;;;;22.34;92.01;99591.13;5050912;28;20205;-67
2023/08/10 09:02:44;;;;;;;0.40;0.40;;;;;;;22.34;93.08;99585.91;5051757;28;20197;-67
2023/08/10 09:05:11;;;;;;;0.43;0.43;;;;;;;22.44;92.36;99580.81;5046622;28;20209;-67
2023/08/10 09:07:37;;;;;;;0.50;0.50;;;;;;;22.62;91.24;99595.09;5049252;28;20231;-68
2023/08/10 09:10:04;;;;;;;0.50;0.50;;;;;;;;;;5045775;28;20254;-69
2023/08/10 09:12:34;;;;;;;0.80;0.80;;;;;;;22.38;94.59;99581.28;5048987;28;20200;-67
2023/08/10 09:15:03;;;;;;;0.63;0.63;;;;;;;22.49;95.62;99568.22;5051139;28;20631;-67
2023/08/10 09:17:30;;;;;;;0.57;0.57;;;;;;;22.47;95.60;99575.38;5049389;28;20208;-69
2023/08/10 09:19:57;;;;;;;0.40;0.40;;;;;;;22.21;95.54;99574.72;5049325;28;20208;-67
2023/08/10 09:22:33;;;;;;;0.50;0.50;;;;;;;22.22;95.73;99572.94;5050060;28;20450;-68
2023/08/10 09:25:00;;;;;;;0.90;0.57;;;;;;;21.99;95.25;99553.78;5049581;28;20209;-67
2023/08/10 09:27:27;;;;;;;0.40;0.40;;;;;;;22.04;93.35;99579.53;5048181;28;20671;-68
2023/08/10 09:29:58;;;;;;;0.67;0.67;;;;;;;22.08;94.57;99567.91;5048468;28;20659;-68
2023/08/10 09:32:24;;;;;;;0.40;0.40;;;;;;;22.10;94.09;99561.63;5050608;28;20201;-68
2023/08/10 09:34:52;;;;;;;0.50;0.50;;;;;;;21.93;93.63;99570.75;5049629;28;20208;-67
2023/08/10 09:37:19;;;;;;;0.47;0.47;;;;;;;21.71;93.94;99560.16;5050445;28;20620;-67
2023/08/10 09:39:46;;;;;;;0.50;0.50;;;;;;;21.75;94.21;99559.00;5050079;28;20604;-68
2023/08/10 09:42:13;;;;;;;0.60;0.60;;;;;;;21.96;93.45;99554.00;5049011;28;20676;-67
2023/08/10 09:44:45;;;;;;;0.60;0.60;;;;;;;22.13;93.13;99555.38;5050240;28;20606;-68
2023/08/10 09:47:13;;;;;;;0.60;0.60;;;;;;;22.10;90.33;99556.41;5049691;28;20674;-67
2023/08/10 09:49:41;;;;;;;0.50;0.50;;;;;;;21.95;90.34;99527.06;5049659;28;20561;-67
2023/08/10 09:52:08;;;;;;;1.20;0.60;;;;;;;22.06;90.77;99546.31;5048906;28;20350;-68
2023/08/10 09:54:37;;;;;;;0.60;0.60;;;;;;;22.14;90.59;99554.41;5049842;28;20210;-68
2023/08/10 09:57:04;;;;;;;0.50;0.50;;;;;;;22.16;90.46;99552.53;5050568;28;20206;-68
2023/08/10 09:59:31;;;;;;;0.50;0.50;;;;;;;22.02;89.04;99540.50;5047630;28;20256;-67
2023/08/10 10:01:59;;;;;;;0.30;0.30;;;;;;;21.86;90.91;99547.78;5049557;28;20209;-68
2023/08/10 10:04:28;;;;;;;0.40;0.40;;;;;;;21.79;91.64;99544.78;5048750;28;20238;-68
2023/08/10 10:06:56;;;;;;;0.90;0.90;;;;;;;21.85;91.98;99540.88;5049009;28;20287;-67
2023/08/10 10:09:24;;;;;;;0.50;0.50;;;;;;;21.92;92.47;99547.34;5049885;28;20708;-67
2023/08/10 10:11:51;;;;;;;0.50;0.50;;;;;;;21.94;91.99;99546.28;5048913;28;20257;-68
2023/08/10 10:14:20;;;;;;;1.17;0.80;;;;;;;22.02;91.78;99548.31;5050499;28;20653;-68
2023/08/10 10:16:47;;;;;;;0.30;0.30;;;;;;;21.98;91.45;99537.28;5050081;28;20731;-67
2023/08/10 10:19:14;;;;;;;0.93;0.50;;;;;;;22.01;91.83;99540.59;5050283;28;20208;-68
2023/08/10 10:21:43;;;;;;;0.70;0.70;;;;;;;21.97;91.41;99535.59;5049230;28;20240;-67
2023/08/10 10:24:12;;;;;;;0.50;0.50;;;;;;;21.91;90.04;99536.06;5050233;28;20208;-67
2023/08/10 10:26:39;;;;;;;0.40;0.40;;;;;;;21.85;90.56;99525.22;5049397;28;20201;-67
2023/08/10 10:29:15;;;;;;;0.50;0.50;;;;;;;21.95;91.60;99542.72;5048614;28;20202;-67
2023/08/10 10:31:42;;;;;;;0.40;0.40;;;;;;;22.02;90.23;99537.88;5050056;28;20369;-68
2023/08/10 10:34:13;;;;;;;0.50;0.50;;;;;;;22.06;88.86;99530.66;5049797;28;20213;-67
2023/08/10 10:36:40;;;;;;;0.63;0.63;;;;;;;22.09;89.74;99533.03;5050092;28;20204;-67
2023/08/10 10:39:11;;;;;;;0.60;0.60;;;;;;;22.07;88.19;99537.56;5049459;28;20291;-67
2023/08/10 10:41:42;;;;;;;0.50;0.50;;;;;;;21.93;89.80;99534.19;5047623;28;20624;-68
2023/08/10 10:44:10;;;;;;;0.60;0.60;;;;;;;21.83;90.71;99530.56;5048327;28;20622;-67
2023/08/10 10:46:41;;;;;;;0.67;0.67;;;;;;;21.82;93.11;99534.13;5050139;28;20196;-65
2023/08/10 10:49:12;;;;;;;0.87;0.60;;;;;;;21.89;91.15;99540.59;5049341;28;20732;-67
2023/08/10 10:51:59;;;;;;;0.50;0.43;;;;;;;21.83;90.02;99529.72;5049759;28;20673;-67
2023/08/10 10:54:34;;;;;;;0.50;0.50;;;;;;;21.81;92.02;99519.38;5048739;28;20200;-67
2023/08/10 10:57:01;;;;;;;0.30;0.30;;;;;;;21.92;93.42;99548.19;5048722;28;20199;-67
2023/08/10 10:59:28;;;;;;;0.47;0.47;;;;;;;21.86;94.49;99543.38;5049955;28;20204;-67
2023/08/10 11:01:55;;;;;;;0.40;0.40;;;;;;;21.87;95.06;99547.66;5048511;28;20205;-68
2023/08/10 11:04:22;;;;;;;0.40;0.40;;;;;;;21.92;96.27;99548.19;5050076;28;20207;-67
2023/08/10 11:06:49;;;;;;;0.60;0.60;;;;;;;21.95;97.85;99547.94;5048816;28;20235;-67
2023/08/10 11:09:16;;;;;;;0.50;0.50;;;;;;;21.88;97.54;99549.31;5050154;28;20657;-67
2023/08/10 11:11:49;;;;;;;0.50;0.50;;;;;;;21.86;96.22;99534.72;5050322;28;20232;-67
2023/08/10 11:14:16;;;;;;;0.50;0.50;;;;;;;22.04;96.92;99546.44;5049347;28;20192;-69
2023/08/10 11:16:44;;;;;;;0.40;0.40;;;;;;;22.14;96.95;99547.41;5048446;28;20579;-69
2023/08/10 11:19:13;;;;;;;0.53;0.53;;;;;;;22.20;97.35;99546.09;5048860;28;20270;-68
2023/08/10 11:21:42;;;;;;;0.50;0.50;;;;;;;22.22;96.96;99544.22;5049155;28;20238;-69
2023/08/10 11:24:09;;;;;;;0.50;0.50;;;;;;;22.24;95.79;99550.16;5048784;28;20589;-70
2023/08/10 11:26:39;;;;;;;0.60;0.60;;;;;;;22.14;93.97;99546.56;5048914;28;20192;-69
2023/08/10 11:29:08;;;;;;;0.50;0.50;;;;;;;22.04;93.42;99540.38;5050263;28;20231;-70
2023/08/10 11:31:39;;;;;;;0.40;0.40;;;;;;;21.99;94.04;99527.69;5049796;28;20204;-69
2023/08/10 11:34:21;;;;;;;0.40;0.40;;;;;;;22.19;92.45;99539.22;5053567;28;20240;-70
2023/08/10 11:36:49;;;;;;;0.77;0.77;;;;;;;21.92;91.96;99522.09;5053873;28;20204;-70